Sea Wave — WDF4968 — position and weather

sailwx.info

Track history (hours):
 
Tides and Currents Weather Stations Pressure Air Temp Water Temp Dewpoint Dewpoint Depression Visibility Wind Speed Wind Dir Waves Ship Positions

Sea Wave

Owner: Sea Wave Corp., Salinas, CA. More information available from US FCC via Universal Licensing System and Coast Guard Vessel Documentation Center.

Last reported at 2018-Jan-29 08:06 UTC. Time now 2018-May-20 17:37 UTC.
Position N 34°51' W 120°54'.
Warning: this ship's position is months out of date.

Length 26 m.

Type: Fishing. MMSI: 367457870.

Date/timePositionNaut miles runAvg speedWind from/ knotsBaromVisibWave heightAir tempDewpointWater temp
2018-Jan-29 08:06N 34°51' W 120°54'1 8.7
2018-Jan-29 08:00N 34°51' W 120°54'5 8.8
2018-Jan-29 07:27N 34°46' W 120°51'17 9.1
2018-Jan-29 05:35N 34°32' W 120°40'110.2
2018-Jan-29 05:29N 34°31' W 120°39'7 9.6
2018-Jan-29 04:43N 34°27' W 120°32'2 9.9
2018-Jan-29 04:29N 34°26' W 120°29'510.2
2018-Jan-29 04:01N 34°25' W 120°23'5 9.9
2018-Jan-29 03:30N 34°24' W 120°17'5 9.8
2018-Jan-29 02:59N 34°23' W 120°11'5 9.8
2018-Jan-29 02:28N 34°22' W 120°05'7 9.5
2018-Jan-29 01:44N 34°21' W 119°57'4 9.4
2018-Jan-29 01:21N 34°20' W 119°53'12 8.9
2018-Jan-29 00:04N 34°18' W 119°39'2 9.1
2018-Jan-28 23:48N 34°17' W 119°36'3 8.6
2018-Jan-28 23:31N 34°17' W 119°33'5 8.8
2018-Jan-28 22:59N 34°16' W 119°28'4 8.5
2018-Jan-28 22:28N 34°15' W 119°23'4 8.5
2018-Jan-28 22:00N 34°14' W 119°18'2 2.0
2018-Jan-28 21:09N 34°15' W 119°16'0 0.0
2018-Jan-28 20:51N 34°15' W 119°16'0 0.0
2018-Jan-28 19:06N 34°15' W 119°16'0 0.0
2018-Jan-28 19:00N 34°15' W 119°16'0 0.0
2018-Jan-28 16:51N 34°15' W 119°16'0 0.0
2018-Jan-28 16:12N 34°15' W 119°16'0 0.0
2018-Jan-28 15:48N 34°15' W 119°16'0 0.0
2018-Jan-28 15:21N 34°15' W 119°16'0 0.0
2018-Jan-28 15:00N 34°15' W 119°16'0 0.0
2018-Jan-28 14:24N 34°15' W 119°16'0 0.0
2018-Jan-28 14:00N 34°15' W 119°16'0 0.0
2018-Jan-28 13:30N 34°15' W 119°16'0 0.0
2018-Jan-28 12:57N 34°15' W 119°16'0 0.0
2018-Jan-28 12:30N 34°15' W 119°16'0 0.0
2018-Jan-28 11:57N 34°15' W 119°16'0 0.0
2018-Jan-28 11:30N 34°15' W 119°16'0 0.0
2018-Jan-28 10:45N 34°15' W 119°16'0 0.0
2018-Jan-28 10:12N 34°15' W 119°16'0 0.0
2018-Jan-28 09:57N 34°15' W 119°16'0 0.0
2018-Jan-28 09:27N 34°15' W 119°16'0 0.0
2018-Jan-28 08:48N 34°15' W 119°16'0 0.0
2018-Jan-28 08:30N 34°15' W 119°16'0 0.0
2018-Jan-28 08:00N 34°15' W 119°16'0 0.0
2018-Jan-28 07:24N 34°15' W 119°16'0 0.0
2018-Jan-28 06:48N 34°15' W 119°16'0 0.0
2018-Jan-28 06:27N 34°15' W 119°16'0 0.0
2018-Jan-28 06:00N 34°15' W 119°16'0 0.0
2018-Jan-28 05:24N 34°15' W 119°16'0 0.0
2018-Jan-28 04:57N 34°15' W 119°16'0 0.0
2018-Jan-28 04:30N 34°15' W 119°16'0 0.0
2018-Jan-28 03:51N 34°15' W 119°16'0 0.0
2018-Jan-28 03:24N 34°15' W 119°16'0 0.0
2018-Jan-28 02:51N 34°15' W 119°16'0 0.0
2018-Jan-28 01:39N 34°15' W 119°16'0 0.0
2018-Jan-27 22:36N 34°15' W 119°16'0 0.0
2018-Jan-27 22:18N 34°15' W 119°16'0 0.0
2018-Jan-27 21:57N 34°15' W 119°16'0 0.0
2018-Jan-27 21:21N 34°15' W 119°16'0 0.0
2018-Jan-27 21:00N 34°15' W 119°16'0 0.0
2018-Jan-27 19:39N 34°15' W 119°16'0 0.0
2018-Jan-27 19:21N 34°15' W 119°16'0 0.0
2018-Jan-27 18:51N 34°15' W 119°16'0 0.0
2018-Jan-27 18:27N 34°15' W 119°16'0 0.0
2018-Jan-27 17:42N 34°15' W 119°16'0 0.0
2018-Jan-27 17:09N 34°15' W 119°16'0 0.0
2018-Jan-27 16:57N 34°15' W 119°16'0 0.0
2018-Jan-27 15:54N 34°15' W 119°16'0 0.0
2018-Jan-27 14:36N 34°15' W 119°16'0 0.0
2018-Jan-27 14:27N 34°15' W 119°16'0 0.0
2018-Jan-27 13:36N 34°15' W 119°16'0 0.0
2018-Jan-27 12:42N 34°15' W 119°16'0 0.0
2018-Jan-27 12:30N 34°15' W 119°16'0 0.0
2018-Jan-27 11:54N 34°15' W 119°16'0 0.0
2018-Jan-27 11:24N 34°15' W 119°16'0 0.0
2018-Jan-27 10:48N 34°15' W 119°16'0 0.0
2018-Jan-27 10:24N 34°15' W 119°16'0 0.0
2018-Jan-27 09:57N 34°15' W 119°16'0 0.0
2018-Jan-27 09:27N 34°15' W 119°16'0 0.0
2018-Jan-27 08:54N 34°15' W 119°16'0 0.0
2018-Jan-27 08:06N 34°15' W 119°16'0 0.0
2018-Jan-27 07:54N 34°15' W 119°16'0 0.0
2018-Jan-27 07:30N 34°15' W 119°16'0 0.0
2018-Jan-27 06:51N 34°15' W 119°16'0 0.0
2018-Jan-27 06:27N 34°15' W 119°16'0 0.0
2018-Jan-27 06:00N 34°15' W 119°16'0 0.0
2018-Jan-27 05:30N 34°15' W 119°16'0 0.0
2018-Jan-27 04:54N 34°15' W 119°16'0 0.0
2018-Jan-27 04:24N 34°15' W 119°16'0 0.0
2018-Jan-27 04:00N 34°15' W 119°16'0 0.0
2018-Jan-26 23:51N 34°15' W 119°16'0 0.0
2018-Jan-26 23:09N 34°15' W 119°16'0 0.0
2018-Jan-26 22:57N 34°15' W 119°16'0 0.0
2018-Jan-26 20:51N 34°15' W 119°16'0 0.0
2018-Jan-26 20:24N 34°15' W 119°16'0 0.0
2018-Jan-26 19:45N 34°15' W 119°16'0 0.0
2018-Jan-26 19:27N 34°15' W 119°16'0 0.0
2018-Jan-26 18:57N 34°15' W 119°16'0 0.0
2018-Jan-26 18:27N 34°15' W 119°16'0 0.0
2018-Jan-26 18:00N 34°15' W 119°16'0 0.0
2018-Jan-26 17:30N 34°15' W 119°16'0 0.0
2018-Jan-26 16:57N 34°15' W 119°16'0 0.0
2018-Jan-26 16:30N 34°15' W 119°16'0 0.0
2018-Jan-26 15:48N 34°15' W 119°16'0 0.0
2018-Jan-26 15:18N 34°15' W 119°16'0 0.0
2018-Jan-26 14:54N 34°15' W 119°16'0 0.0
2018-Jan-26 13:33N 34°15' W 119°16'0 0.0
2018-Jan-26 13:27N 34°15' W 119°16'0 0.0
2018-Jan-26 11:18N 34°15' W 119°16'0 0.0
2018-Jan-26 10:57N 34°15' W 119°16'0 0.0
2018-Jan-26 10:27N 34°15' W 119°16'0 0.0
2018-Jan-26 09:57N 34°15' W 119°16'0 0.0
2018-Jan-26 09:18N 34°15' W 119°16'0 0.0
2018-Jan-26 08:54N 34°15' W 119°16'0 0.0
2018-Jan-26 08:30N 34°15' W 119°16'0 0.0
2018-Jan-26 08:00N 34°15' W 119°16'0 0.0
2018-Jan-26 07:30N 34°15' W 119°16'0 0.0
2018-Jan-26 06:39N 34°15' W 119°16'0 0.0
2018-Jan-26 06:27N 34°15' W 119°16'0 0.0
2018-Jan-26 04:45N 34°15' W 119°16'0 0.0
2018-Jan-26 03:24N 34°15' W 119°16'0 0.0
2018-Jan-25 18:39N 34°15' W 119°16'0 0.0
2018-Jan-25 18:21N 34°15' W 119°16'0 0.0
2018-Jan-25 17:54N 34°15' W 119°16'0 0.0
2018-Jan-25 17:30N 34°15' W 119°16'0 0.0
2018-Jan-25 16:57N 34°15' W 119°16'0 0.0
2018-Jan-25 16:30N 34°15' W 119°16'0 0.0
2018-Jan-25 15:57N 34°15' W 119°16'0 0.0
2018-Jan-25 15:21N 34°15' W 119°16'0 0.0
2018-Jan-25 14:57N 34°15' W 119°16'0 0.0
2018-Jan-25 14:30N 34°15' W 119°16'0 0.0
2018-Jan-25 14:00N 34°15' W 119°16'0 0.0
2018-Jan-25 13:30N 34°15' W 119°16'0 0.0
2018-Jan-25 12:45N 34°15' W 119°16'0 0.0
2018-Jan-25 12:30N 34°15' W 119°16'0 0.0
2018-Jan-25 11:54N 34°15' W 119°16'0 0.0
2018-Jan-25 11:30N 34°15' W 119°16'0 0.0
2018-Jan-25 10:46N 34°15' W 119°16'0 0.0
2018-Jan-25 10:18N 34°15' W 119°16'0 0.0
2018-Jan-25 09:57N 34°15' W 119°16'0 0.0
2018-Jan-25 08:48N 34°15' W 119°16'0 0.0
2018-Jan-25 08:30N 34°15' W 119°16'0 0.0
2018-Jan-25 07:51N 34°15' W 119°16'0 0.0
2018-Jan-25 07:30N 34°15' W 119°16'0 0.0
2018-Jan-25 07:00N 34°15' W 119°16'0 0.0
2018-Jan-25 06:30N 34°15' W 119°16'0 0.0
2018-Jan-25 05:51N 34°15' W 119°16'0 0.0
2018-Jan-25 02:48N 34°15' W 119°16'0 0.0
2018-Jan-25 01:03N 34°15' W 119°16'0 0.0
2018-Jan-25 00:51N 34°15' W 119°16'0 0.0
2018-Jan-25 00:18N 34°15' W 119°16'0 0.0
2018-Jan-24 23:39N 34°15' W 119°16'0 0.0
2018-Jan-24 23:30N 34°15' W 119°16'0 0.0
2018-Jan-24 23:00N 34°15' W 119°16'0 0.0
2018-Jan-24 22:27N 34°15' W 119°16'0 0.0
2018-Jan-24 21:51N 34°15' W 119°16'0 0.0
2018-Jan-24 19:27N 34°15' W 119°16'0 0.0
2018-Jan-24 18:57N 34°15' W 119°16'0 0.0
2018-Jan-24 18:27N 34°15' W 119°16'0 0.0
2018-Jan-24 17:57N 34°15' W 119°16'0 0.0
2018-Jan-24 17:27N 34°15' W 119°16'0 0.0
2018-Jan-24 16:54N 34°15' W 119°16'0 0.0
2018-Jan-24 16:27N 34°15' W 119°16'0 0.0
2018-Jan-24 15:57N 34°15' W 119°16'0 0.0
2018-Jan-24 15:24N 34°15' W 119°16'0 0.0
2018-Jan-24 15:00N 34°15' W 119°16'0 0.0
2018-Jan-24 14:27N 34°15' W 119°16'0 0.0
2018-Jan-24 13:57N 34°15' W 119°16'0 0.0
2018-Jan-24 13:12N 34°15' W 119°16'0 0.0
2018-Jan-24 13:00N 34°15' W 119°16'0 0.0
2018-Jan-24 11:54N 34°15' W 119°16'0 0.0
2018-Jan-24 11:30N 34°15' W 119°16'0 0.0
2018-Jan-24 10:54N 34°15' W 119°16'0 0.0
2018-Jan-24 10:24N 34°15' W 119°16'0 0.0
2018-Jan-24 09:48N 34°15' W 119°16'0 0.0
2018-Jan-24 09:27N 34°15' W 119°16'0 0.0
2018-Jan-24 08:51N 34°15' W 119°16'0 0.0
2018-Jan-24 08:27N 34°15' W 119°16'0 0.0
2018-Jan-24 07:51N 34°15' W 119°16'0 0.0
2018-Jan-24 06:00N 34°15' W 119°16'0 0.0
2018-Jan-24 05:12N 34°15' W 119°16'0 0.0
2018-Jan-24 04:45N 34°15' W 119°16'0 0.0
2018-Jan-24 04:30N 34°15' W 119°16'0 0.0
2018-Jan-23 22:45N 34°15' W 119°16'0 0.0
2018-Jan-23 22:30N 34°15' W 119°16'0 0.0
2018-Jan-23 21:57N 34°15' W 119°16'0 0.0
2018-Jan-23 21:24N 34°15' W 119°16'  
Track history (hours):
 
Tides and Currents Weather Stations Pressure Air Temp Water Temp Dewpoint Dewpoint Depression Visibility Wind Speed Wind Dir Waves Ship Positions

Sea Wave

Owner: Sea Wave Corp., Salinas, CA. More information available from US FCC via Universal Licensing System and Coast Guard Vessel Documentation Center.

Last reported at 2018-Jan-29 08:06 UTC. Time now 2018-May-20 17:37 UTC.
Position N 34°51' W 120°54'.
Warning: this ship's position is months out of date.

Length 26 m.

Type: Fishing. MMSI: 367457870.

Date/timePositionNaut miles runAvg speedWind from/ knotsBaromVisibWave heightAir tempDewpointWater temp
2018-Jan-29 08:06N 34°51' W 120°54'1 8.7
2018-Jan-29 08:00N 34°51' W 120°54'5 8.8
2018-Jan-29 07:27N 34°46' W 120°51'17 9.1
2018-Jan-29 05:35N 34°32' W 120°40'110.2
2018-Jan-29 05:29N 34°31' W 120°39'7 9.6
2018-Jan-29 04:43N 34°27' W 120°32'2 9.9
2018-Jan-29 04:29N 34°26' W 120°29'510.2
2018-Jan-29 04:01N 34°25' W 120°23'5 9.9
2018-Jan-29 03:30N 34°24' W 120°17'5 9.8
2018-Jan-29 02:59N 34°23' W 120°11'5 9.8
2018-Jan-29 02:28N 34°22' W 120°05'7 9.5
2018-Jan-29 01:44N 34°21' W 119°57'4 9.4
2018-Jan-29 01:21N 34°20' W 119°53'12 8.9
2018-Jan-29 00:04N 34°18' W 119°39'2 9.1
2018-Jan-28 23:48N 34°17' W 119°36'3 8.6
2018-Jan-28 23:31N 34°17' W 119°33'5 8.8
2018-Jan-28 22:59N 34°16' W 119°28'4 8.5
2018-Jan-28 22:28N 34°15' W 119°23'4 8.5
2018-Jan-28 22:00N 34°14' W 119°18'2 2.0
2018-Jan-28 21:09N 34°15' W 119°16'0 0.0
2018-Jan-28 20:51N 34°15' W 119°16'0 0.0
2018-Jan-28 19:06N 34°15' W 119°16'0 0.0
2018-Jan-28 19:00N 34°15' W 119°16'0 0.0
2018-Jan-28 16:51N 34°15' W 119°16'0 0.0
2018-Jan-28 16:12N 34°15' W 119°16'0 0.0
2018-Jan-28 15:48N 34°15' W 119°16'0 0.0
2018-Jan-28 15:21N 34°15' W 119°16'0 0.0
2018-Jan-28 15:00N 34°15' W 119°16'0 0.0
2018-Jan-28 14:24N 34°15' W 119°16'0 0.0
2018-Jan-28 14:00N 34°15' W 119°16'0 0.0
2018-Jan-28 13:30N 34°15' W 119°16'0 0.0
2018-Jan-28 12:57N 34°15' W 119°16'0 0.0
2018-Jan-28 12:30N 34°15' W 119°16'0 0.0
2018-Jan-28 11:57N 34°15' W 119°16'0 0.0
2018-Jan-28 11:30N 34°15' W 119°16'0 0.0
2018-Jan-28 10:45N 34°15' W 119°16'0 0.0
2018-Jan-28 10:12N 34°15' W 119°16'0 0.0
2018-Jan-28 09:57N 34°15' W 119°16'0 0.0
2018-Jan-28 09:27N 34°15' W 119°16'0 0.0
2018-Jan-28 08:48N 34°15' W 119°16'0 0.0
2018-Jan-28 08:30N 34°15' W 119°16'0 0.0
2018-Jan-28 08:00N 34°15' W 119°16'0 0.0
2018-Jan-28 07:24N 34°15' W 119°16'0 0.0
2018-Jan-28 06:48N 34°15' W 119°16'0 0.0
2018-Jan-28 06:27N 34°15' W 119°16'0 0.0
2018-Jan-28 06:00N 34°15' W 119°16'0 0.0
2018-Jan-28 05:24N 34°15' W 119°16'0 0.0
2018-Jan-28 04:57N 34°15' W 119°16'0 0.0
2018-Jan-28 04:30N 34°15' W 119°16'0 0.0
2018-Jan-28 03:51N 34°15' W 119°16'0 0.0
2018-Jan-28 03:24N 34°15' W 119°16'0 0.0
2018-Jan-28 02:51N 34°15' W 119°16'0 0.0
2018-Jan-28 01:39N 34°15' W 119°16'0 0.0
2018-Jan-27 22:36N 34°15' W 119°16'0 0.0
2018-Jan-27 22:18N 34°15' W 119°16'0 0.0
2018-Jan-27 21:57N 34°15' W 119°16'0 0.0
2018-Jan-27 21:21N 34°15' W 119°16'0 0.0
2018-Jan-27 21:00N 34°15' W 119°16'0 0.0
2018-Jan-27 19:39N 34°15' W 119°16'0 0.0
2018-Jan-27 19:21N 34°15' W 119°16'0 0.0
2018-Jan-27 18:51N 34°15' W 119°16'0 0.0
2018-Jan-27 18:27N 34°15' W 119°16'0 0.0
2018-Jan-27 17:42N 34°15' W 119°16'0 0.0
2018-Jan-27 17:09N 34°15' W 119°16'0 0.0
2018-Jan-27 16:57N 34°15' W 119°16'0 0.0
2018-Jan-27 15:54N 34°15' W 119°16'0 0.0
2018-Jan-27 14:36N 34°15' W 119°16'0 0.0
2018-Jan-27 14:27N 34°15' W 119°16'0 0.0
2018-Jan-27 13:36N 34°15' W 119°16'0 0.0
2018-Jan-27 12:42N 34°15' W 119°16'0 0.0
2018-Jan-27 12:30N 34°15' W 119°16'0 0.0
2018-Jan-27 11:54N 34°15' W 119°16'0 0.0
2018-Jan-27 11:24N 34°15' W 119°16'0 0.0
2018-Jan-27 10:48N 34°15' W 119°16'0 0.0
2018-Jan-27 10:24N 34°15' W 119°16'0 0.0
2018-Jan-27 09:57N 34°15' W 119°16'0 0.0
2018-Jan-27 09:27N 34°15' W 119°16'0 0.0
2018-Jan-27 08:54N 34°15' W 119°16'0 0.0
2018-Jan-27 08:06N 34°15' W 119°16'0 0.0
2018-Jan-27 07:54N 34°15' W 119°16'0 0.0
2018-Jan-27 07:30N 34°15' W 119°16'0 0.0
2018-Jan-27 06:51N 34°15' W 119°16'0 0.0
2018-Jan-27 06:27N 34°15' W 119°16'0 0.0
2018-Jan-27 06:00N 34°15' W 119°16'0 0.0
2018-Jan-27 05:30N 34°15' W 119°16'0 0.0
2018-Jan-27 04:54N 34°15' W 119°16'0 0.0
2018-Jan-27 04:24N 34°15' W 119°16'0 0.0
2018-Jan-27 04:00N 34°15' W 119°16'0 0.0
2018-Jan-26 23:51N 34°15' W 119°16'0 0.0
2018-Jan-26 23:09N 34°15' W 119°16'0 0.0
2018-Jan-26 22:57N 34°15' W 119°16'0 0.0
2018-Jan-26 20:51N 34°15' W 119°16'0 0.0
2018-Jan-26 20:24N 34°15' W 119°16'0 0.0
2018-Jan-26 19:45N 34°15' W 119°16'0 0.0
2018-Jan-26 19:27N 34°15' W 119°16'0 0.0
2018-Jan-26 18:57N 34°15' W 119°16'0 0.0
2018-Jan-26 18:27N 34°15' W 119°16'0 0.0
2018-Jan-26 18:00N 34°15' W 119°16'0 0.0
2018-Jan-26 17:30N 34°15' W 119°16'0 0.0
2018-Jan-26 16:57N 34°15' W 119°16'0 0.0
2018-Jan-26 16:30N 34°15' W 119°16'0 0.0
2018-Jan-26 15:48N 34°15' W 119°16'0 0.0
2018-Jan-26 15:18N 34°15' W 119°16'0 0.0
2018-Jan-26 14:54N 34°15' W 119°16'0 0.0
2018-Jan-26 13:33N 34°15' W 119°16'0 0.0
2018-Jan-26 13:27N 34°15' W 119°16'0 0.0
2018-Jan-26 11:18N 34°15' W 119°16'0 0.0
2018-Jan-26 10:57N 34°15' W 119°16'0 0.0
2018-Jan-26 10:27N 34°15' W 119°16'0 0.0
2018-Jan-26 09:57N 34°15' W 119°16'0 0.0
2018-Jan-26 09:18N 34°15' W 119°16'0 0.0
2018-Jan-26 08:54N 34°15' W 119°16'0 0.0
2018-Jan-26 08:30N 34°15' W 119°16'0 0.0
2018-Jan-26 08:00N 34°15' W 119°16'0 0.0
2018-Jan-26 07:30N 34°15' W 119°16'0 0.0
2018-Jan-26 06:39N 34°15' W 119°16'0 0.0
2018-Jan-26 06:27N 34°15' W 119°16'0 0.0
2018-Jan-26 04:45N 34°15' W 119°16'0 0.0
2018-Jan-26 03:24N 34°15' W 119°16'0 0.0
2018-Jan-25 18:39N 34°15' W 119°16'0 0.0
2018-Jan-25 18:21N 34°15' W 119°16'0 0.0
2018-Jan-25 17:54N 34°15' W 119°16'0 0.0
2018-Jan-25 17:30N 34°15' W 119°16'0 0.0
2018-Jan-25 16:57N 34°15' W 119°16'0 0.0
2018-Jan-25 16:30N 34°15' W 119°16'0 0.0
2018-Jan-25 15:57N 34°15' W 119°16'0 0.0
2018-Jan-25 15:21N 34°15' W 119°16'0 0.0
2018-Jan-25 14:57N 34°15' W 119°16'0 0.0
2018-Jan-25 14:30N 34°15' W 119°16'0 0.0
2018-Jan-25 14:00N 34°15' W 119°16'0 0.0
2018-Jan-25 13:30N 34°15' W 119°16'0 0.0
2018-Jan-25 12:45N 34°15' W 119°16'0 0.0
2018-Jan-25 12:30N 34°15' W 119°16'0 0.0
2018-Jan-25 11:54N 34°15' W 119°16'0 0.0
2018-Jan-25 11:30N 34°15' W 119°16'0 0.0
2018-Jan-25 10:46N 34°15' W 119°16'0 0.0
2018-Jan-25 10:18N 34°15' W 119°16'0 0.0
2018-Jan-25 09:57N 34°15' W 119°16'0 0.0
2018-Jan-25 08:48N 34°15' W 119°16'0 0.0
2018-Jan-25 08:30N 34°15' W 119°16'0 0.0
2018-Jan-25 07:51N 34°15' W 119°16'0 0.0
2018-Jan-25 07:30N 34°15' W 119°16'0 0.0
2018-Jan-25 07:00N 34°15' W 119°16'0 0.0
2018-Jan-25 06:30N 34°15' W 119°16'0 0.0
2018-Jan-25 05:51N 34°15' W 119°16'0 0.0
2018-Jan-25 02:48N 34°15' W 119°16'0 0.0
2018-Jan-25 01:03N 34°15' W 119°16'0 0.0
2018-Jan-25 00:51N 34°15' W 119°16'0 0.0
2018-Jan-25 00:18N 34°15' W 119°16'0 0.0
2018-Jan-24 23:39N 34°15' W 119°16'0 0.0
2018-Jan-24 23:30N 34°15' W 119°16'0 0.0
2018-Jan-24 23:00N 34°15' W 119°16'0 0.0
2018-Jan-24 22:27N 34°15' W 119°16'0 0.0
2018-Jan-24 21:51N 34°15' W 119°16'0 0.0
2018-Jan-24 19:27N 34°15' W 119°16'0 0.0
2018-Jan-24 18:57N 34°15' W 119°16'0 0.0
2018-Jan-24 18:27N 34°15' W 119°16'0 0.0
2018-Jan-24 17:57N 34°15' W 119°16'0 0.0
2018-Jan-24 17:27N 34°15' W 119°16'0 0.0
2018-Jan-24 16:54N 34°15' W 119°16'0 0.0
2018-Jan-24 16:27N 34°15' W 119°16'0 0.0
2018-Jan-24 15:57N 34°15' W 119°16'0 0.0
2018-Jan-24 15:24N 34°15' W 119°16'0 0.0
2018-Jan-24 15:00N 34°15' W 119°16'0 0.0
2018-Jan-24 14:27N 34°15' W 119°16'0 0.0
2018-Jan-24 13:57N 34°15' W 119°16'0 0.0
2018-Jan-24 13:12N 34°15' W 119°16'0 0.0
2018-Jan-24 13:00N 34°15' W 119°16'0 0.0
2018-Jan-24 11:54N 34°15' W 119°16'0 0.0
2018-Jan-24 11:30N 34°15' W 119°16'0 0.0
2018-Jan-24 10:54N 34°15' W 119°16'0 0.0
2018-Jan-24 10:24N 34°15' W 119°16'0 0.0
2018-Jan-24 09:48N 34°15' W 119°16'0 0.0
2018-Jan-24 09:27N 34°15' W 119°16'0 0.0
2018-Jan-24 08:51N 34°15' W 119°16'0 0.0
2018-Jan-24 08:27N 34°15' W 119°16'0 0.0
2018-Jan-24 07:51N 34°15' W 119°16'0 0.0
2018-Jan-24 06:00N 34°15' W 119°16'0 0.0
2018-Jan-24 05:12N 34°15' W 119°16'0 0.0
2018-Jan-24 04:45N 34°15' W 119°16'0 0.0
2018-Jan-24 04:30N 34°15' W 119°16'0 0.0
2018-Jan-23 22:45N 34°15' W 119°16'0 0.0
2018-Jan-23 22:30N 34°15' W 119°16'0 0.0
2018-Jan-23 21:57N 34°15' W 119°16'0 0.0
2018-Jan-23 21:24N 34°15' W 119°16'  

Dump ship's entire track history